createdAt,value
2022-09-23T00:01:15.666Z,7.49
2022-09-23T00:03:45.352Z,7.51
2022-09-23T00:06:14.395Z,7.50
2022-09-23T00:08:41.073Z,7.47
2022-09-23T00:11:19.493Z,7.51
2022-09-23T00:13:48.960Z,7.49
2022-09-23T00:16:20.597Z,7.43
2022-09-23T00:18:47.096Z,7.41
2022-09-23T00:21:14.616Z,7.36
2022-09-23T00:23:42.847Z,7.43
2022-09-23T00:26:12.054Z,7.40
2022-09-23T00:28:38.736Z,7.38
2022-09-23T00:31:07.173Z,7.36
2022-09-23T00:33:33.861Z,7.37
2022-09-23T00:36:11.037Z,7.39
2022-09-23T00:38:38.814Z,7.39
2022-09-23T00:41:06.307Z,7.34
2022-09-23T00:43:45.054Z,7.30
2022-09-23T00:46:26.298Z,7.28
2022-09-23T00:48:59.387Z,7.27
2022-09-23T00:51:33.359Z,7.27
2022-09-23T00:54:02.173Z,7.24
2022-09-23T00:56:31.982Z,7.19
2022-09-23T00:58:59.980Z,7.21
2022-09-23T01:01:26.800Z,7.21
2022-09-23T01:03:54.785Z,7.12
2022-09-23T01:06:21.480Z,7.06
2022-09-23T01:08:48.300Z,7.05
2022-09-23T01:11:45.371Z,7.05
2022-09-23T01:14:40.640Z,7.00
2022-09-23T01:17:23.169Z,6.97
2022-09-23T01:19:49.670Z,6.93
2022-09-23T01:22:32.291Z,6.88
2022-09-23T01:25:26.229Z,6.87
2022-09-23T01:28:08.278Z,6.90
2022-09-23T01:30:51.773Z,6.89
2022-09-23T01:33:30.330Z,6.87
2022-09-23T01:36:26.079Z,6.83
2022-09-23T01:39:03.361Z,6.80
2022-09-23T01:41:32.726Z,6.81
2022-09-23T01:44:11.454Z,6.79
2022-09-23T01:46:48.318Z,6.79
2022-09-23T01:49:25.333Z,6.76
2022-09-23T01:52:03.943Z,6.70
2022-09-23T01:54:55.146Z,6.73
2022-09-23T01:57:36.081Z,6.72
2022-09-23T02:00:11.791Z,6.71
2022-09-23T02:02:49.508Z,6.72
2022-09-23T02:05:26.758Z,6.73
2022-09-23T02:07:59.413Z,6.73
2022-09-23T02:10:31.011Z,6.69
2022-09-23T02:13:05.443Z,6.67
2022-09-23T02:15:42.105Z,6.66
2022-09-23T02:18:14.850Z,6.66
2022-09-23T02:20:43.213Z,6.68
2022-09-23T02:23:17.257Z,6.69
2022-09-23T02:26:04.714Z,6.67
2022-09-23T02:28:43.338Z,6.64
2022-09-23T02:31:19.989Z,6.62
2022-09-23T02:33:53.318Z,6.56
2022-09-23T02:36:29.289Z,6.54
2022-09-23T02:39:02.643Z,6.52
2022-09-23T02:41:38.776Z,6.49
2022-09-23T02:44:12.817Z,6.42
2022-09-23T02:46:39.812Z,6.38
2022-09-23T02:49:12.638Z,6.32
2022-09-23T02:51:40.417Z,6.28
2022-09-23T02:54:10.681Z,6.28
2022-09-23T02:56:37.471Z,6.28
2022-09-23T02:59:04.217Z,6.28
2022-09-23T03:01:56.459Z,6.25
2022-09-23T03:04:35.089Z,6.22
2022-09-23T03:07:10.024Z,6.20
2022-09-23T03:10:04.440Z,6.17
2022-09-23T03:12:52.918Z,6.16
2022-09-23T03:15:35.680Z,6.16
2022-09-23T03:18:18.131Z,6.14
2022-09-23T03:20:50.453Z,6.15
2022-09-23T03:23:26.408Z,6.20
2022-09-23T03:25:58.345Z,6.21
2022-09-23T03:28:27.015Z,6.21
2022-09-23T03:30:56.049Z,6.18
2022-09-23T03:33:28.850Z,6.17
2022-09-23T03:36:24.436Z,6.16
2022-09-23T03:38:54.462Z,6.16
2022-09-23T03:41:34.317Z,6.18
2022-09-23T03:44:02.310Z,6.16
2022-09-23T03:46:30.031Z,6.17
2022-09-23T03:49:04.272Z,6.19
2022-09-23T03:51:30.986Z,6.19
2022-09-23T03:53:57.553Z,6.20
2022-09-23T03:56:24.173Z,6.21
2022-09-23T03:58:51.120Z,6.20
2022-09-23T04:01:17.660Z,6.21
2022-09-23T04:03:44.119Z,6.22
2022-09-23T04:06:10.553Z,6.22
2022-09-23T04:08:37.050Z,6.24
2022-09-23T04:11:04.883Z,6.22
2022-09-23T04:13:31.998Z,6.21
2022-09-23T04:15:58.518Z,6.20
2022-09-23T04:18:25.251Z,6.19
2022-09-23T04:20:51.714Z,6.18
2022-09-23T04:23:18.172Z,6.16
2022-09-23T04:25:49.189Z,6.14
2022-09-23T04:28:15.933Z,6.14
2022-09-23T04:30:43.845Z,6.16
2022-09-23T04:33:11.342Z,6.18
2022-09-23T04:35:40.370Z,6.22
2022-09-23T04:38:07.209Z,6.25
2022-09-23T04:40:34.241Z,6.28
2022-09-23T04:43:01.143Z,6.30
2022-09-23T04:45:27.736Z,6.33
2022-09-23T04:47:54.498Z,6.34
2022-09-23T04:50:21.062Z,6.39
2022-09-23T04:52:47.479Z,6.44
2022-09-23T04:55:13.971Z,6.46
2022-09-23T04:57:40.584Z,6.51
2022-09-23T05:00:07.779Z,6.55
2022-09-23T05:02:35.662Z,6.54
2022-09-23T05:05:02.163Z,6.57
2022-09-23T05:07:28.667Z,6.59
2022-09-23T05:09:55.260Z,6.60
2022-09-23T05:12:21.933Z,6.62
2022-09-23T05:14:48.708Z,6.66
2022-09-23T05:17:15.568Z,6.73
2022-09-23T05:19:42.503Z,6.76
2022-09-23T05:22:08.948Z,6.79
2022-09-23T05:24:35.458Z,6.81
2022-09-23T05:27:02.092Z,6.83
2022-09-23T05:29:29.107Z,6.87
2022-09-23T05:31:55.649Z,6.89
2022-09-23T05:34:23.194Z,6.92
2022-09-23T05:36:49.705Z,6.94
2022-09-23T05:39:16.363Z,6.95
2022-09-23T05:41:43.488Z,7.00
2022-09-23T05:44:10.120Z,7.04
2022-09-23T05:46:36.687Z,7.07
2022-09-23T05:49:05.460Z,7.14
2022-09-23T05:51:33.521Z,7.18
2022-09-23T05:54:03.086Z,7.24
2022-09-23T05:56:30.567Z,7.32
2022-09-23T05:58:58.965Z,7.38
2022-09-23T06:01:28.847Z,7.45
2022-09-23T06:03:57.188Z,7.50
2022-09-23T06:06:34.446Z,7.55
2022-09-23T06:09:01.796Z,7.60
2022-09-23T06:11:33.046Z,7.64
2022-09-23T06:14:03.063Z,7.70
2022-09-23T06:16:32.409Z,7.74
2022-09-23T06:19:04.530Z,7.80
2022-09-23T06:21:34.266Z,7.87
2022-09-23T06:24:01.187Z,7.94
2022-09-23T06:26:33.899Z,7.99
2022-09-23T06:29:03.904Z,8.04
2022-09-23T06:31:41.324Z,8.10
2022-09-23T06:34:13.234Z,8.19
2022-09-23T06:36:45.573Z,8.26
2022-09-23T06:39:23.167Z,8.35
2022-09-23T06:41:53.833Z,8.46
2022-09-23T06:44:22.079Z,8.58
2022-09-23T06:46:49.070Z,8.71
2022-09-23T06:49:18.845Z,8.85
2022-09-23T06:51:46.499Z,8.99
2022-09-23T06:54:13.864Z,9.15
2022-09-23T06:56:41.448Z,9.29
2022-09-23T06:59:11.044Z,9.44
2022-09-23T07:01:39.402Z,9.57
2022-09-23T07:04:07.857Z,9.66
2022-09-23T07:06:34.614Z,9.83
2022-09-23T07:09:01.388Z,9.97
2022-09-23T07:11:29.350Z,10.14
2022-09-23T07:13:56.250Z,10.30
2022-09-23T07:16:23.503Z,10.44
2022-09-23T07:18:50.494Z,10.57
2022-09-23T07:21:19.477Z,10.71
2022-09-23T07:23:48.423Z,10.86
2022-09-23T07:26:16.418Z,10.98
2022-09-23T07:28:43.667Z,11.10
2022-09-23T07:31:14.189Z,11.24
2022-09-23T07:33:44.356Z,11.38
2022-09-23T07:36:19.652Z,11.50
2022-09-23T07:38:47.607Z,11.61
2022-09-23T07:41:17.933Z,11.78
2022-09-23T07:43:46.263Z,11.88
2022-09-23T07:46:17.017Z,11.98
2022-09-23T07:48:46.804Z,12.11
2022-09-23T07:51:23.884Z,12.26
2022-09-23T07:53:52.626Z,12.41
2022-09-23T07:56:22.896Z,12.59
2022-09-23T07:59:00.422Z,12.74
2022-09-23T08:01:29.526Z,12.93
2022-09-23T08:04:01.366Z,13.08
2022-09-23T08:06:27.982Z,13.20
2022-09-23T08:08:58.860Z,13.37
2022-09-23T08:11:29.209Z,13.51
2022-09-23T08:13:56.839Z,13.61
2022-09-23T08:16:25.612Z,13.75
2022-09-23T08:18:52.416Z,13.91
2022-09-23T08:21:21.549Z,13.98
2022-09-23T08:23:49.667Z,14.15
2022-09-23T08:26:21.731Z,14.30
2022-09-23T08:28:51.959Z,14.38
2022-09-23T08:31:35.395Z,14.45
2022-09-23T08:34:09.088Z,14.51
2022-09-23T08:36:37.251Z,14.56
2022-09-23T08:39:13.542Z,14.72
2022-09-23T08:42:09.148Z,14.87
2022-09-23T08:45:00.135Z,15.04
2022-09-23T08:47:32.397Z,15.22
2022-09-23T08:50:20.859Z,15.36
2022-09-23T08:52:57.505Z,15.47
2022-09-23T08:55:40.835Z,15.60
2022-09-23T08:58:26.755Z,15.74
2022-09-23T09:01:13.292Z,15.83
2022-09-23T09:04:01.346Z,15.91
2022-09-23T09:06:53.043Z,15.91
2022-09-23T09:09:34.097Z,15.97
2022-09-23T09:12:21.647Z,16.01
2022-09-23T09:15:15.877Z,16.06
2022-09-23T09:18:13.038Z,16.11
2022-09-23T09:20:49.004Z,16.16
2022-09-23T09:23:15.382Z,16.20
2022-09-23T09:25:51.957Z,16.29
2022-09-23T09:28:39.514Z,16.38
2022-09-23T09:31:33.011Z,16.39
2022-09-23T09:34:34.145Z,16.42
2022-09-23T09:37:20.886Z,16.53
2022-09-23T09:39:47.424Z,16.64
2022-09-23T09:42:21.484Z,16.74
2022-09-23T09:45:02.896Z,16.81
2022-09-23T09:47:35.307Z,16.85
2022-09-23T09:50:14.333Z,16.99
2022-09-23T09:52:43.268Z,17.20
2022-09-23T09:55:12.933Z,17.34
2022-09-23T09:57:47.721Z,17.43
2022-09-23T10:00:26.776Z,17.57
2022-09-23T10:02:57.251Z,17.65
2022-09-23T10:05:34.340Z,17.59
2022-09-23T10:08:24.996Z,17.51
2022-09-23T10:11:17.827Z,17.50
2022-09-23T10:14:05.002Z,17.71
2022-09-23T10:16:35.184Z,17.85
2022-09-23T10:19:26.374Z,18.03
2022-09-23T10:22:07.173Z,18.06
2022-09-23T10:24:39.516Z,18.18
2022-09-23T10:27:15.854Z,18.30
2022-09-23T10:29:57.740Z,18.30
2022-09-23T10:32:27.677Z,18.49
2022-09-23T10:35:09.266Z,18.57
2022-09-23T10:37:38.994Z,18.65
2022-09-23T10:40:57.917Z,18.58
2022-09-23T10:44:05.087Z,18.62
2022-09-23T10:46:38.859Z,18.50
2022-09-23T10:49:33.099Z,18.46
2022-09-23T10:52:09.308Z,18.49
2022-09-23T10:55:05.143Z,18.35
2022-09-23T10:57:53.590Z,18.45
2022-09-23T11:00:40.869Z,18.48
2022-09-23T11:03:09.314Z,18.46
2022-09-23T11:05:48.869Z,18.53
2022-09-23T11:08:27.724Z,18.58
2022-09-23T11:10:56.368Z,18.60
2022-09-23T11:13:34.735Z,18.53
2022-09-23T11:16:14.128Z,18.47
2022-09-23T11:19:06.022Z,18.54
2022-09-23T11:21:48.790Z,18.62
2022-09-23T11:24:28.133Z,18.65
2022-09-23T11:27:06.205Z,18.64
2022-09-23T11:29:52.058Z,18.62
2022-09-23T11:35:36.744Z,18.64
2022-09-23T11:38:10.261Z,18.72
2022-09-23T11:40:43.685Z,18.83
2022-09-23T11:43:28.587Z,18.93
2022-09-23T11:46:29.644Z,18.98
2022-09-23T11:49:05.300Z,19.09
2022-09-23T11:51:59.438Z,19.24
2022-09-23T11:54:38.551Z,19.34
2022-09-23T11:57:09.610Z,19.41
2022-09-23T11:59:51.749Z,19.58
2022-09-23T12:02:30.742Z,19.73
2022-09-23T12:05:17.348Z,19.87
2022-09-23T12:07:54.646Z,19.93
2022-09-23T12:10:48.391Z,19.98
2022-09-23T12:13:27.339Z,20.02
2022-09-23T12:16:02.453Z,19.96
2022-09-23T12:19:14.079Z,19.82
2022-09-23T12:22:08.051Z,19.93
2022-09-23T12:24:45.759Z,19.85
2022-09-23T12:27:23.966Z,19.78
2022-09-23T12:29:56.815Z,19.70
2022-09-23T12:32:25.081Z,19.67
2022-09-23T12:34:53.437Z,19.66
2022-09-23T12:37:43.253Z,19.60
2022-09-23T12:40:22.818Z,19.60
2022-09-23T12:42:50.237Z,19.42
2022-09-23T12:45:32.587Z,19.46
2022-09-23T12:48:17.980Z,19.43
2022-09-23T12:50:54.640Z,19.53
2022-09-23T12:53:33.525Z,19.52
2022-09-23T12:56:13.718Z,19.48
2022-09-23T12:58:43.277Z,19.54
2022-09-23T13:01:17.157Z,19.51
2022-09-23T13:04:08.054Z,19.54
2022-09-23T13:06:56.570Z,19.66
2022-09-23T13:09:27.072Z,19.72
2022-09-23T13:11:59.816Z,19.65
2022-09-23T13:14:28.584Z,19.65
2022-09-23T13:16:58.343Z,19.67
2022-09-23T13:19:28.089Z,19.65
2022-09-23T13:21:54.493Z,19.58
2022-09-23T13:24:29.996Z,19.63
2022-09-23T13:27:05.695Z,19.61
2022-09-23T13:29:42.303Z,19.41
2022-09-23T13:32:14.933Z,19.29
2022-09-23T13:34:44.311Z,19.22
2022-09-23T13:37:22.528Z,19.22
2022-09-23T13:39:49.938Z,19.19
2022-09-23T13:42:28.592Z,19.15
2022-09-23T13:44:57.539Z,19.11
2022-09-23T13:47:27.668Z,19.14
2022-09-23T13:49:54.441Z,19.19
2022-09-23T13:52:30.892Z,19.32
2022-09-23T13:54:57.526Z,19.45
2022-09-23T13:57:33.821Z,19.56
2022-09-23T14:00:22.230Z,19.62
2022-09-23T14:02:48.686Z,19.71
2022-09-23T14:05:23.818Z,19.60
2022-09-23T14:07:55.963Z,19.54
2022-09-23T14:10:24.723Z,19.53
2022-09-23T14:12:52.803Z,19.55
2022-09-23T14:15:21.079Z,19.55
2022-09-23T14:18:03.706Z,19.41
2022-09-23T14:20:30.104Z,19.46
2022-09-23T14:23:05.548Z,19.41
2022-09-23T14:25:32.965Z,19.33
2022-09-23T14:28:00.658Z,19.40
2022-09-23T14:30:27.378Z,19.45
2022-09-23T14:32:53.939Z,19.47
2022-09-23T14:35:27.432Z,19.41
2022-09-23T14:38:14.946Z,19.40
2022-09-23T14:41:17.348Z,19.32
2022-09-23T14:43:49.475Z,19.24
2022-09-23T14:46:21.255Z,19.21
2022-09-23T14:48:54.527Z,19.16
2022-09-23T14:51:22.825Z,19.07
2022-09-23T14:53:49.392Z,19.00
2022-09-23T14:56:22.499Z,18.91
2022-09-23T14:58:53.191Z,18.74
2022-09-23T15:01:32.493Z,18.66
2022-09-23T15:04:08.950Z,18.55
2022-09-23T15:06:37.912Z,18.46
2022-09-23T15:09:05.840Z,18.36
2022-09-23T15:11:34.701Z,18.28
2022-09-23T15:14:19.687Z,18.21
2022-09-23T15:16:49.729Z,18.11
2022-09-23T15:19:19.964Z,18.00
2022-09-23T15:21:47.889Z,17.94
2022-09-23T15:24:42.560Z,17.90
2022-09-23T15:27:25.523Z,17.84
2022-09-23T15:29:52.984Z,17.80
2022-09-23T15:32:20.112Z,17.75
2022-09-23T15:34:48.860Z,17.73
2022-09-23T15:37:15.329Z,17.68
2022-09-23T15:39:41.828Z,17.63
2022-09-23T15:42:10.171Z,17.58
2022-09-23T15:44:37.943Z,17.53
2022-09-23T15:47:04.736Z,17.48
2022-09-23T15:49:36.461Z,17.46
2022-09-23T15:52:05.002Z,17.39
2022-09-23T15:54:34.734Z,17.34
2022-09-23T15:57:01.326Z,17.28
2022-09-23T15:59:29.769Z,17.25
2022-09-23T16:01:58.689Z,17.21
2022-09-23T16:04:26.148Z,17.18
2022-09-23T16:06:53.130Z,17.12
2022-09-23T16:09:19.611Z,17.06
2022-09-23T16:11:48.376Z,17.01
2022-09-23T16:14:16.735Z,16.97
2022-09-23T16:16:45.280Z,16.91
2022-09-23T16:19:12.387Z,16.85
2022-09-23T16:21:40.898Z,16.80
2022-09-23T16:24:18.434Z,16.72
2022-09-23T16:26:47.126Z,16.63
2022-09-23T16:29:14.688Z,16.58
2022-09-23T16:31:41.246Z,16.52
2022-09-23T16:34:08.103Z,16.44
2022-09-23T16:36:38.261Z,16.37
2022-09-23T16:39:07.072Z,16.31
2022-09-23T16:41:33.817Z,16.25
2022-09-23T16:44:02.248Z,16.20
2022-09-23T16:46:29.480Z,16.17
2022-09-23T16:48:57.591Z,16.12
2022-09-23T16:51:30.050Z,16.11
2022-09-23T16:53:58.215Z,16.04
2022-09-23T16:56:28.925Z,15.98
2022-09-23T16:58:57.166Z,15.93
2022-09-23T17:01:44.376Z,15.90
2022-09-23T17:04:11.586Z,15.84
2022-09-23T17:06:51.744Z,15.79
2022-09-23T17:09:20.240Z,15.73
2022-09-23T17:11:50.536Z,15.69
2022-09-23T17:14:17.006Z,15.65
2022-09-23T17:16:44.018Z,15.58
2022-09-23T17:19:12.257Z,15.54
2022-09-23T17:21:39.183Z,15.51
2022-09-23T17:24:06.748Z,15.47
2022-09-23T17:26:33.926Z,15.42
2022-09-23T17:29:00.967Z,15.39
2022-09-23T17:31:28.087Z,15.33
2022-09-23T17:33:54.602Z,15.28
2022-09-23T17:36:21.975Z,15.24
2022-09-23T17:38:49.436Z,15.20
2022-09-23T17:41:17.248Z,15.17
2022-09-23T17:43:45.390Z,15.13
2022-09-23T17:46:16.269Z,15.07
2022-09-23T17:48:43.264Z,15.04
2022-09-23T17:51:18.817Z,15.00
2022-09-23T17:53:47.151Z,14.97
2022-09-23T17:56:21.142Z,14.93
2022-09-23T17:58:49.350Z,14.90
2022-09-23T18:01:19.142Z,14.84
2022-09-23T18:03:46.554Z,14.81
2022-09-23T18:06:15.990Z,14.79
2022-09-23T18:08:44.127Z,14.75
2022-09-23T18:11:22.173Z,14.74
2022-09-23T18:13:51.387Z,14.72
2022-09-23T18:16:18.348Z,14.69
2022-09-23T18:18:50.117Z,14.68
2022-09-23T18:21:16.636Z,14.64
2022-09-23T18:23:43.076Z,14.61
2022-09-23T18:26:22.746Z,14.59
2022-09-23T18:28:50.166Z,14.55
2022-09-23T18:31:16.810Z,14.54
2022-09-23T18:33:43.344Z,14.53
2022-09-23T18:36:10.080Z,14.52
2022-09-23T18:38:36.524Z,14.49
2022-09-23T18:41:03.367Z,14.47
2022-09-23T18:43:40.784Z,14.47
2022-09-23T18:46:15.784Z,14.43
2022-09-23T18:49:01.429Z,14.42
2022-09-23T18:51:29.562Z,14.39
2022-09-23T18:53:59.921Z,14.39
2022-09-23T18:56:29.603Z,14.39
2022-09-23T18:58:56.677Z,14.37
2022-09-23T19:01:24.217Z,14.36
2022-09-23T19:03:57.451Z,14.38
2022-09-23T19:06:25.060Z,14.38
2022-09-23T19:08:53.336Z,14.37
2022-09-23T19:11:21.029Z,14.36
2022-09-23T19:13:52.253Z,14.35
2022-09-23T19:16:18.775Z,14.33
2022-09-23T19:18:48.907Z,14.32
2022-09-23T19:21:20.396Z,14.30
2022-09-23T19:23:53.122Z,14.29
2022-09-23T19:26:25.816Z,14.29
2022-09-23T19:28:55.052Z,14.30
2022-09-23T19:31:33.441Z,14.31
2022-09-23T19:34:11.635Z,14.32
2022-09-23T19:36:40.840Z,14.32
2022-09-23T19:39:12.277Z,14.33
2022-09-23T19:41:38.731Z,14.32
2022-09-23T19:44:07.291Z,14.31
2022-09-23T19:46:37.770Z,14.30
2022-09-23T19:49:06.222Z,14.28
2022-09-23T19:51:36.956Z,14.29
2022-09-23T19:54:04.962Z,14.29
2022-09-23T19:56:32.470Z,14.29
2022-09-23T19:58:59.936Z,14.29
2022-09-23T20:01:29.328Z,14.27
2022-09-23T20:03:56.217Z,14.27
2022-09-23T20:06:23.213Z,14.28
2022-09-23T20:08:50.425Z,14.26
2022-09-23T20:11:23.662Z,14.25
2022-09-23T20:14:00.773Z,14.24
2022-09-23T20:16:31.821Z,14.23
2022-09-23T20:18:59.912Z,14.23
2022-09-23T20:21:28.223Z,14.22
2022-09-23T20:23:54.907Z,14.20
2022-09-23T20:26:39.823Z,14.20
2022-09-23T20:29:06.263Z,14.19
2022-09-23T20:31:34.633Z,14.19
2022-09-23T20:34:05.445Z,14.16
2022-09-23T20:36:33.179Z,14.16
2022-09-23T20:39:02.015Z,14.15
2022-09-23T20:41:30.173Z,14.14
2022-09-23T20:44:01.306Z,14.13
2022-09-23T20:46:28.835Z,14.11
2022-09-23T20:48:56.624Z,14.12
2022-09-23T20:51:24.688Z,14.09
2022-09-23T20:53:52.877Z,14.08
2022-09-23T20:56:21.447Z,14.07
2022-09-23T20:58:48.700Z,14.04
2022-09-23T21:01:15.740Z,14.02
2022-09-23T21:03:44.807Z,14.02
2022-09-23T21:06:14.470Z,14.01
2022-09-23T21:08:44.777Z,14.01
2022-09-23T21:11:16.863Z,14.00
2022-09-23T21:13:47.936Z,14.01
2022-09-23T21:16:17.462Z,14.00
2022-09-23T21:18:47.669Z,13.99
2022-09-23T21:21:14.724Z,13.98
2022-09-23T21:23:43.386Z,13.96
2022-09-23T21:26:14.117Z,13.95
2022-09-23T21:28:45.420Z,13.94
2022-09-23T21:31:26.164Z,13.94
2022-09-23T21:34:01.895Z,13.93
2022-09-23T21:36:30.956Z,13.90
2022-09-23T21:38:58.118Z,13.88
2022-09-23T21:41:25.227Z,13.88
2022-09-23T21:43:51.703Z,13.86
2022-09-23T21:46:20.427Z,13.86
2022-09-23T21:48:53.591Z,13.85
2022-09-23T21:51:26.035Z,13.84
2022-09-23T21:53:57.724Z,13.83
2022-09-23T21:56:26.479Z,13.82
2022-09-23T21:58:54.190Z,13.79
2022-09-23T22:01:23.552Z,13.78
2022-09-23T22:03:52.882Z,13.78
2022-09-23T22:06:21.865Z,13.77
2022-09-23T22:08:54.572Z,13.75
2022-09-23T22:11:41.574Z,13.74
2022-09-23T22:14:11.170Z,13.76
2022-09-23T22:16:39.011Z,13.73
2022-09-23T22:19:06.996Z,13.73
2022-09-23T22:21:36.596Z,13.74
2022-09-23T22:24:04.691Z,13.74
2022-09-23T22:26:33.150Z,13.73
2022-09-23T22:29:18.619Z,13.73
2022-09-23T22:32:03.463Z,13.71
2022-09-23T22:34:49.036Z,13.70
2022-09-23T22:37:18.992Z,13.73
2022-09-23T22:39:45.961Z,13.74
2022-09-23T22:42:13.085Z,13.74
2022-09-23T22:44:39.884Z,13.74
2022-09-23T22:47:06.518Z,13.73
2022-09-23T22:49:33.103Z,13.73
2022-09-23T22:51:59.892Z,13.73
2022-09-23T22:54:33.654Z,13.74
2022-09-23T22:57:03.155Z,13.73
2022-09-23T22:59:30.036Z,13.72
2022-09-23T23:01:57.192Z,13.70
2022-09-23T23:04:23.804Z,13.72
2022-09-23T23:06:51.194Z,13.73
2022-09-23T23:09:18.855Z,13.74
2022-09-23T23:11:45.800Z,13.74
2022-09-23T23:14:13.842Z,13.75
2022-09-23T23:16:40.411Z,13.77
2022-09-23T23:19:09.811Z,13.77
2022-09-23T23:21:37.157Z,13.77
2022-09-23T23:24:05.079Z,13.77
2022-09-23T23:26:35.285Z,13.78
2022-09-23T23:29:01.802Z,13.79
2022-09-23T23:31:29.259Z,13.78
2022-09-23T23:33:55.824Z,13.78
2022-09-23T23:36:23.533Z,13.79
2022-09-23T23:38:53.857Z,13.78
2022-09-23T23:41:22.791Z,13.78
2022-09-23T23:43:55.240Z,13.78
2022-09-23T23:46:25.363Z,13.78
2022-09-23T23:48:53.033Z,13.78
2022-09-23T23:51:20.109Z,13.78
2022-09-23T23:53:47.565Z,13.78
2022-09-23T23:56:19.159Z,13.78
2022-09-23T23:58:48.110Z,13.77
